sensor_id;sensor_type;location;lat;lon;timestamp;temperature;humidity
6102;DHT22;3081;50.584;7.032;2023-03-07T00:01:30;4.00;99.90
6102;DHT22;3081;50.584;7.032;2023-03-07T00:03:58;4.10;99.90
6102;DHT22;3081;50.584;7.032;2023-03-07T00:06:25;4.00;99.90
6102;DHT22;3081;50.584;7.032;2023-03-07T00:08:54;4.00;99.90
6102;DHT22;3081;50.584;7.032;2023-03-07T00:11:24;4.00;99.90
6102;DHT22;3081;50.584;7.032;2023-03-07T00:13:51;4.10;99.90
6102;DHT22;3081;50.584;7.032;2023-03-07T00:16:20;4.00;99.90
6102;DHT22;3081;50.584;7.032;2023-03-07T00:18:47;4.00;99.90
6102;DHT22;3081;50.584;7.032;2023-03-07T00:21:16;4.10;99.90
6102;DHT22;3081;50.584;7.032;2023-03-07T00:23:44;4.10;99.90
6102;DHT22;3081;50.584;7.032;2023-03-07T00:26:13;4.10;99.90
6102;DHT22;3081;50.584;7.032;2023-03-07T00:28:41;4.10;99.90
6102;DHT22;3081;50.584;7.032;2023-03-07T00:31:10;4.00;99.90
6102;DHT22;3081;50.584;7.032;2023-03-07T00:33:37;4.00;99.90
6102;DHT22;3081;50.584;7.032;2023-03-07T00:36:07;4.00;99.90
6102;DHT22;3081;50.584;7.032;2023-03-07T00:38:34;3.90;99.90
6102;DHT22;3081;50.584;7.032;2023-03-07T00:41:03;3.90;99.90
6102;DHT22;3081;50.584;7.032;2023-03-07T00:43:32;3.90;99.90
6102;DHT22;3081;50.584;7.032;2023-03-07T00:46:00;4.00;99.90
6102;DHT22;3081;50.584;7.032;2023-03-07T00:48:28;4.00;99.90
6102;DHT22;3081;50.584;7.032;2023-03-07T00:50:55;3.90;99.90
6102;DHT22;3081;50.584;7.032;2023-03-07T00:53:23;4.00;99.90
6102;DHT22;3081;50.584;7.032;2023-03-07T00:55:55;4.00;99.90
6102;DHT22;3081;50.584;7.032;2023-03-07T00:58:22;4.00;99.90
6102;DHT22;3081;50.584;7.032;2023-03-07T01:00:49;4.00;99.90
6102;DHT22;3081;50.584;7.032;2023-03-07T01:03:18;4.00;99.90
6102;DHT22;3081;50.584;7.032;2023-03-07T01:05:45;4.00;99.90
6102;DHT22;3081;50.584;7.032;2023-03-07T01:08:13;4.00;99.90
6102;DHT22;3081;50.584;7.032;2023-03-07T01:10:40;4.00;99.90
6102;DHT22;3081;50.584;7.032;2023-03-07T01:13:07;4.00;99.90
6102;DHT22;3081;50.584;7.032;2023-03-07T01:15:34;4.00;99.90
6102;DHT22;3081;50.584;7.032;2023-03-07T01:18:01;4.00;99.90
6102;DHT22;3081;50.584;7.032;2023-03-07T01:20:31;4.10;99.90
6102;DHT22;3081;50.584;7.032;2023-03-07T01:22:58;4.10;99.90
6102;DHT22;3081;50.584;7.032;2023-03-07T01:25:25;4.10;99.90
6102;DHT22;3081;50.584;7.032;2023-03-07T01:27:52;4.10;99.90
6102;DHT22;3081;50.584;7.032;2023-03-07T01:30:20;4.10;99.90
6102;DHT22;3081;50.584;7.032;2023-03-07T01:32:47;4.10;99.90
6102;DHT22;3081;50.584;7.032;2023-03-07T01:35:19;4.10;99.90
6102;DHT22;3081;50.584;7.032;2023-03-07T01:37:48;4.10;99.90
6102;DHT22;3081;50.584;7.032;2023-03-07T01:40:15;4.20;99.90
6102;DHT22;3081;50.584;7.032;2023-03-07T01:42:43;4.20;99.90
6102;DHT22;3081;50.584;7.032;2023-03-07T01:48:09;4.20;99.90
6102;DHT22;3081;50.584;7.032;2023-03-07T01:50:36;4.20;99.90
6102;DHT22;3081;50.584;7.032;2023-03-07T01:53:05;4.20;99.90
6102;DHT22;3081;50.584;7.032;2023-03-07T01:55:34;4.20;99.90
6102;DHT22;3081;50.584;7.032;2023-03-07T01:58:04;4.10;99.90
6102;DHT22;3081;50.584;7.032;2023-03-07T02:00:32;4.20;99.90
6102;DHT22;3081;50.584;7.032;2023-03-07T02:03:09;4.20;99.90
6102;DHT22;3081;50.584;7.032;2023-03-07T02:05:39;4.20;99.90
6102;DHT22;3081;50.584;7.032;2023-03-07T02:08:11;4.20;99.90
6102;DHT22;3081;50.584;7.032;2023-03-07T02:10:40;4.20;99.90
6102;DHT22;3081;50.584;7.032;2023-03-07T02:13:10;4.20;99.90
6102;DHT22;3081;50.584;7.032;2023-03-07T02:15:37;4.20;99.90
6102;DHT22;3081;50.584;7.032;2023-03-07T02:18:04;4.20;99.90
6102;DHT22;3081;50.584;7.032;2023-03-07T02:20:38;4.20;99.90
6102;DHT22;3081;50.584;7.032;2023-03-07T02:23:14;4.20;99.90
6102;DHT22;3081;50.584;7.032;2023-03-07T02:25:45;4.30;99.90
6102;DHT22;3081;50.584;7.032;2023-03-07T02:28:16;4.20;99.90
6102;DHT22;3081;50.584;7.032;2023-03-07T02:30:54;4.20;99.90
6102;DHT22;3081;50.584;7.032;2023-03-07T02:33:21;4.20;99.90
6102;DHT22;3081;50.584;7.032;2023-03-07T02:35:52;4.20;99.90
6102;DHT22;3081;50.584;7.032;2023-03-07T02:38:21;4.20;99.90
6102;DHT22;3081;50.584;7.032;2023-03-07T02:40:49;4.20;99.90
6102;DHT22;3081;50.584;7.032;2023-03-07T02:43:19;4.20;99.90
6102;DHT22;3081;50.584;7.032;2023-03-07T02:45:46;4.20;99.90
6102;DHT22;3081;50.584;7.032;2023-03-07T02:48:13;4.20;99.90
6102;DHT22;3081;50.584;7.032;2023-03-07T02:50:40;4.30;99.90
6102;DHT22;3081;50.584;7.032;2023-03-07T02:53:07;4.30;99.90
6102;DHT22;3081;50.584;7.032;2023-03-07T02:55:34;4.20;99.90
6102;DHT22;3081;50.584;7.032;2023-03-07T02:58:01;4.20;99.90
6102;DHT22;3081;50.584;7.032;2023-03-07T03:00:29;4.30;99.90
6102;DHT22;3081;50.584;7.032;2023-03-07T03:02:56;4.30;99.90
6102;DHT22;3081;50.584;7.032;2023-03-07T03:05:23;4.30;99.90
6102;DHT22;3081;50.584;7.032;2023-03-07T03:07:50;4.30;99.90
6102;DHT22;3081;50.584;7.032;2023-03-07T03:10:17;4.30;99.90
6102;DHT22;3081;50.584;7.032;2023-03-07T03:12:44;4.30;99.90
6102;DHT22;3081;50.584;7.032;2023-03-07T03:15:11;4.20;99.90
6102;DHT22;3081;50.584;7.032;2023-03-07T03:17:40;4.30;99.90
6102;DHT22;3081;50.584;7.032;2023-03-07T03:20:07;4.30;99.90
6102;DHT22;3081;50.584;7.032;2023-03-07T03:22:36;4.30;99.90
6102;DHT22;3081;50.584;7.032;2023-03-07T03:25:05;4.30;99.90
6102;DHT22;3081;50.584;7.032;2023-03-07T03:27:32;4.30;99.90
6102;DHT22;3081;50.584;7.032;2023-03-07T03:29:59;4.30;99.90
6102;DHT22;3081;50.584;7.032;2023-03-07T03:32:26;4.40;99.90
6102;DHT22;3081;50.584;7.032;2023-03-07T03:34:54;4.30;99.90
6102;DHT22;3081;50.584;7.032;2023-03-07T03:37:21;4.30;99.90
6102;DHT22;3081;50.584;7.032;2023-03-07T03:39:48;4.40;99.90
6102;DHT22;3081;50.584;7.032;2023-03-07T03:42:15;4.30;99.90
6102;DHT22;3081;50.584;7.032;2023-03-07T03:44:42;4.30;99.90
6102;DHT22;3081;50.584;7.032;2023-03-07T03:47:09;4.30;99.90
6102;DHT22;3081;50.584;7.032;2023-03-07T03:49:36;4.30;99.90
6102;DHT22;3081;50.584;7.032;2023-03-07T03:52:05;4.30;99.90
6102;DHT22;3081;50.584;7.032;2023-03-07T03:54:32;4.40;99.90
6102;DHT22;3081;50.584;7.032;2023-03-07T03:56:59;4.40;99.90
6102;DHT22;3081;50.584;7.032;2023-03-07T03:59:26;4.30;99.90
6102;DHT22;3081;50.584;7.032;2023-03-07T04:01:53;4.30;99.90
6102;DHT22;3081;50.584;7.032;2023-03-07T04:04:20;4.30;99.90
6102;DHT22;3081;50.584;7.032;2023-03-07T04:06:47;4.30;99.90
6102;DHT22;3081;50.584;7.032;2023-03-07T04:09:15;4.30;99.90
6102;DHT22;3081;50.584;7.032;2023-03-07T04:11:42;4.20;99.90
6102;DHT22;3081;50.584;7.032;2023-03-07T04:14:09;4.30;99.90
6102;DHT22;3081;50.584;7.032;2023-03-07T04:16:36;4.30;99.90
6102;DHT22;3081;50.584;7.032;2023-03-07T04:19:03;4.20;99.90
6102;DHT22;3081;50.584;7.032;2023-03-07T04:21:30;4.30;99.90
6102;DHT22;3081;50.584;7.032;2023-03-07T04:23:57;4.30;99.90
6102;DHT22;3081;50.584;7.032;2023-03-07T04:26:25;4.20;99.90
6102;DHT22;3081;50.584;7.032;2023-03-07T04:28:52;4.20;99.90
6102;DHT22;3081;50.584;7.032;2023-03-07T04:31:21;4.20;99.90
6102;DHT22;3081;50.584;7.032;2023-03-07T04:33:49;4.20;99.90
6102;DHT22;3081;50.584;7.032;2023-03-07T04:36:17;4.30;99.90
6102;DHT22;3081;50.584;7.032;2023-03-07T04:38:44;4.20;99.90
6102;DHT22;3081;50.584;7.032;2023-03-07T04:41:12;4.30;99.90
6102;DHT22;3081;50.584;7.032;2023-03-07T04:43:41;4.30;99.90
6102;DHT22;3081;50.584;7.032;2023-03-07T04:46:08;4.30;99.90
6102;DHT22;3081;50.584;7.032;2023-03-07T04:48:36;4.30;99.90
6102;DHT22;3081;50.584;7.032;2023-03-07T04:51:03;4.30;99.90
6102;DHT22;3081;50.584;7.032;2023-03-07T04:53:30;4.30;99.90
6102;DHT22;3081;50.584;7.032;2023-03-07T04:55:58;4.30;99.90
6102;DHT22;3081;50.584;7.032;2023-03-07T04:58:25;4.30;99.90
6102;DHT22;3081;50.584;7.032;2023-03-07T05:00:54;4.30;99.90
6102;DHT22;3081;50.584;7.032;2023-03-07T05:03:22;4.40;99.90
6102;DHT22;3081;50.584;7.032;2023-03-07T05:05:51;4.30;99.90
6102;DHT22;3081;50.584;7.032;2023-03-07T05:08:18;4.30;99.90
6102;DHT22;3081;50.584;7.032;2023-03-07T05:10:45;4.30;99.90
6102;DHT22;3081;50.584;7.032;2023-03-07T05:13:11;4.30;99.90
6102;DHT22;3081;50.584;7.032;2023-03-07T05:15:38;4.30;99.90
6102;DHT22;3081;50.584;7.032;2023-03-07T05:18:07;4.30;99.90
6102;DHT22;3081;50.584;7.032;2023-03-07T05:20:34;4.30;99.90
6102;DHT22;3081;50.584;7.032;2023-03-07T05:23:00;4.30;99.90
6102;DHT22;3081;50.584;7.032;2023-03-07T05:25:27;4.30;99.90
6102;DHT22;3081;50.584;7.032;2023-03-07T05:27:54;4.30;99.90
6102;DHT22;3081;50.584;7.032;2023-03-07T05:30:21;4.30;99.90
6102;DHT22;3081;50.584;7.032;2023-03-07T05:32:48;4.30;99.90
6102;DHT22;3081;50.584;7.032;2023-03-07T05:35:17;4.30;99.90
6102;DHT22;3081;50.584;7.032;2023-03-07T05:37:45;4.20;99.90
6102;DHT22;3081;50.584;7.032;2023-03-07T05:40:12;4.20;99.90
6102;DHT22;3081;50.584;7.032;2023-03-07T05:42:40;4.20;99.90
6102;DHT22;3081;50.584;7.032;2023-03-07T05:45:07;4.20;99.90
6102;DHT22;3081;50.584;7.032;2023-03-07T05:47:34;4.20;99.90
6102;DHT22;3081;50.584;7.032;2023-03-07T05:50:01;4.20;99.90
6102;DHT22;3081;50.584;7.032;2023-03-07T05:52:31;4.20;99.90
6102;DHT22;3081;50.584;7.032;2023-03-07T05:54:57;4.20;99.90
6102;DHT22;3081;50.584;7.032;2023-03-07T05:57:24;4.20;99.90
6102;DHT22;3081;50.584;7.032;2023-03-07T05:59:51;4.30;99.90
6102;DHT22;3081;50.584;7.032;2023-03-07T06:02:18;4.20;99.90
6102;DHT22;3081;50.584;7.032;2023-03-07T06:04:45;4.30;99.90
6102;DHT22;3081;50.584;7.032;2023-03-07T06:07:12;4.30;99.90
6102;DHT22;3081;50.584;7.032;2023-03-07T06:09:40;4.30;99.90
6102;DHT22;3081;50.584;7.032;2023-03-07T06:12:08;4.30;99.90
6102;DHT22;3081;50.584;7.032;2023-03-07T06:14:35;4.30;99.90
6102;DHT22;3081;50.584;7.032;2023-03-07T06:17:03;4.40;99.90
6102;DHT22;3081;50.584;7.032;2023-03-07T06:19:30;4.40;99.90
6102;DHT22;3081;50.584;7.032;2023-03-07T06:21:57;4.40;99.90
6102;DHT22;3081;50.584;7.032;2023-03-07T06:24:24;4.40;99.90
6102;DHT22;3081;50.584;7.032;2023-03-07T06:26:52;4.40;99.90
6102;DHT22;3081;50.584;7.032;2023-03-07T06:29:19;4.40;99.90
6102;DHT22;3081;50.584;7.032;2023-03-07T06:31:46;4.40;99.90
6102;DHT22;3081;50.584;7.032;2023-03-07T06:34:12;4.40;99.90
6102;DHT22;3081;50.584;7.032;2023-03-07T06:36:39;4.40;99.90
6102;DHT22;3081;50.584;7.032;2023-03-07T06:39:06;4.50;99.90
6102;DHT22;3081;50.584;7.032;2023-03-07T06:41:33;4.60;99.90
6102;DHT22;3081;50.584;7.032;2023-03-07T06:44:01;4.70;99.90
6102;DHT22;3081;50.584;7.032;2023-03-07T06:46:28;4.60;99.90
6102;DHT22;3081;50.584;7.032;2023-03-07T06:48:55;4.60;99.90
6102;DHT22;3081;50.584;7.032;2023-03-07T06:51:22;4.60;99.90
6102;DHT22;3081;50.584;7.032;2023-03-07T06:53:49;4.60;99.90
6102;DHT22;3081;50.584;7.032;2023-03-07T06:56:16;4.70;99.90
6102;DHT22;3081;50.584;7.032;2023-03-07T06:58:43;4.70;99.90
6102;DHT22;3081;50.584;7.032;2023-03-07T07:01:16;4.70;99.90
6102;DHT22;3081;50.584;7.032;2023-03-07T07:03:43;4.70;99.90
6102;DHT22;3081;50.584;7.032;2023-03-07T07:06:10;4.70;99.90
6102;DHT22;3081;50.584;7.032;2023-03-07T07:08:37;4.70;99.90
6102;DHT22;3081;50.584;7.032;2023-03-07T07:11:04;4.80;99.90
6102;DHT22;3081;50.584;7.032;2023-03-07T07:13:32;4.80;99.90
6102;DHT22;3081;50.584;7.032;2023-03-07T07:16:03;4.90;99.90
6102;DHT22;3081;50.584;7.032;2023-03-07T07:18:31;5.00;99.90
6102;DHT22;3081;50.584;7.032;2023-03-07T07:20:58;5.00;99.90
6102;DHT22;3081;50.584;7.032;2023-03-07T07:23:25;5.00;99.90
6102;DHT22;3081;50.584;7.032;2023-03-07T07:25:52;5.00;99.90
6102;DHT22;3081;50.584;7.032;2023-03-07T07:28:19;5.00;99.90
6102;DHT22;3081;50.584;7.032;2023-03-07T07:30:46;5.00;99.90
6102;DHT22;3081;50.584;7.032;2023-03-07T07:33:13;5.00;99.90
6102;DHT22;3081;50.584;7.032;2023-03-07T07:35:43;5.00;99.90
6102;DHT22;3081;50.584;7.032;2023-03-07T07:38:10;5.10;99.90
6102;DHT22;3081;50.584;7.032;2023-03-07T07:40:37;5.20;99.90
6102;DHT22;3081;50.584;7.032;2023-03-07T07:43:04;5.20;99.90
6102;DHT22;3081;50.584;7.032;2023-03-07T07:45:31;5.40;99.90
6102;DHT22;3081;50.584;7.032;2023-03-07T07:47:58;5.40;99.90
6102;DHT22;3081;50.584;7.032;2023-03-07T07:50:25;5.50;99.90
6102;DHT22;3081;50.584;7.032;2023-03-07T07:52:54;5.50;99.90
6102;DHT22;3081;50.584;7.032;2023-03-07T07:55:20;5.60;99.90
6102;DHT22;3081;50.584;7.032;2023-03-07T07:57:49;5.70;99.90
6102;DHT22;3081;50.584;7.032;2023-03-07T08:00:17;5.90;99.90
6102;DHT22;3081;50.584;7.032;2023-03-07T08:02:46;6.00;99.90
6102;DHT22;3081;50.584;7.032;2023-03-07T08:05:15;6.00;99.90
6102;DHT22;3081;50.584;7.032;2023-03-07T08:07:42;6.10;99.90
6102;DHT22;3081;50.584;7.032;2023-03-07T08:10:12;6.20;99.90
6102;DHT22;3081;50.584;7.032;2023-03-07T08:12:41;6.10;99.90
6102;DHT22;3081;50.584;7.032;2023-03-07T08:15:08;6.20;99.90
6102;DHT22;3081;50.584;7.032;2023-03-07T08:17:35;6.20;99.90
6102;DHT22;3081;50.584;7.032;2023-03-07T08:20:03;6.40;99.90
6102;DHT22;3081;50.584;7.032;2023-03-07T08:22:33;6.50;99.90
6102;DHT22;3081;50.584;7.032;2023-03-07T08:25:00;6.70;99.90
6102;DHT22;3081;50.584;7.032;2023-03-07T08:27:28;6.70;99.90
6102;DHT22;3081;50.584;7.032;2023-03-07T08:29:56;6.70;99.90
6102;DHT22;3081;50.584;7.032;2023-03-07T08:32:22;6.60;99.90
6102;DHT22;3081;50.584;7.032;2023-03-07T08:34:49;6.70;99.90
6102;DHT22;3081;50.584;7.032;2023-03-07T08:37:16;6.60;99.90
6102;DHT22;3081;50.584;7.032;2023-03-07T08:39:43;6.60;99.90
6102;DHT22;3081;50.584;7.032;2023-03-07T08:42:10;6.70;99.90
6102;DHT22;3081;50.584;7.032;2023-03-07T08:44:38;6.70;99.90
6102;DHT22;3081;50.584;7.032;2023-03-07T08:47:05;6.70;99.90
6102;DHT22;3081;50.584;7.032;2023-03-07T08:49:33;6.70;99.90
6102;DHT22;3081;50.584;7.032;2023-03-07T08:51:59;6.70;99.90
6102;DHT22;3081;50.584;7.032;2023-03-07T08:54:27;6.80;99.90
6102;DHT22;3081;50.584;7.032;2023-03-07T08:56:54;6.90;99.90
6102;DHT22;3081;50.584;7.032;2023-03-07T08:59:20;7.20;99.90
6102;DHT22;3081;50.584;7.032;2023-03-07T09:01:49;7.30;99.90
6102;DHT22;3081;50.584;7.032;2023-03-07T09:04:16;7.40;99.90
6102;DHT22;3081;50.584;7.032;2023-03-07T09:06:43;7.60;99.90
6102;DHT22;3081;50.584;7.032;2023-03-07T09:09:09;7.70;99.90
6102;DHT22;3081;50.584;7.032;2023-03-07T09:11:36;7.80;99.90
6102;DHT22;3081;50.584;7.032;2023-03-07T09:14:03;7.70;99.90
6102;DHT22;3081;50.584;7.032;2023-03-07T09:16:30;7.70;99.90
6102;DHT22;3081;50.584;7.032;2023-03-07T09:18:59;7.60;99.90
6102;DHT22;3081;50.584;7.032;2023-03-07T09:21:25;7.40;99.90
6102;DHT22;3081;50.584;7.032;2023-03-07T09:23:52;7.50;99.90
6102;DHT22;3081;50.584;7.032;2023-03-07T09:26:19;7.70;99.90
6102;DHT22;3081;50.584;7.032;2023-03-07T09:28:46;7.80;99.90
6102;DHT22;3081;50.584;7.032;2023-03-07T09:31:14;7.70;99.90
6102;DHT22;3081;50.584;7.032;2023-03-07T09:33:41;7.80;99.90
6102;DHT22;3081;50.584;7.032;2023-03-07T09:36:11;7.50;99.90
6102;DHT22;3081;50.584;7.032;2023-03-07T09:38:38;7.50;99.90
6102;DHT22;3081;50.584;7.032;2023-03-07T09:41:15;7.70;99.90
6102;DHT22;3081;50.584;7.032;2023-03-07T09:43:50;8.20;99.90
6102;DHT22;3081;50.584;7.032;2023-03-07T09:46:29;8.60;99.90
6102;DHT22;3081;50.584;7.032;2023-03-07T09:49:18;8.90;99.90
6102;DHT22;3081;50.584;7.032;2023-03-07T09:51:49;9.10;99.90
6102;DHT22;3081;50.584;7.032;2023-03-07T09:54:19;9.60;99.90
6102;DHT22;3081;50.584;7.032;2023-03-07T09:56:48;10.10;99.90
6102;DHT22;3081;50.584;7.032;2023-03-07T09:59:21;10.20;99.90
6102;DHT22;3081;50.584;7.032;2023-03-07T10:01:54;10.00;99.90
6102;DHT22;3081;50.584;7.032;2023-03-07T10:04:29;9.90;99.90
6102;DHT22;3081;50.584;7.032;2023-03-07T10:07:01;9.60;99.90
6102;DHT22;3081;50.584;7.032;2023-03-07T10:09:29;9.40;99.90
6102;DHT22;3081;50.584;7.032;2023-03-07T10:15:01;9.50;99.90
6102;DHT22;3081;50.584;7.032;2023-03-07T10:17:44;9.50;99.90
6102;DHT22;3081;50.584;7.032;2023-03-07T10:20:20;9.50;99.90
6102;DHT22;3081;50.584;7.032;2023-03-07T10:22:53;9.20;99.90
6102;DHT22;3081;50.584;7.032;2023-03-07T10:25:26;9.10;99.90
6102;DHT22;3081;50.584;7.032;2023-03-07T10:27:59;8.90;99.90
6102;DHT22;3081;50.584;7.032;2023-03-07T10:30:30;8.90;99.90
6102;DHT22;3081;50.584;7.032;2023-03-07T10:32:59;8.70;99.90
6102;DHT22;3081;50.584;7.032;2023-03-07T10:35:37;8.50;99.90
6102;DHT22;3081;50.584;7.032;2023-03-07T10:38:13;8.50;99.90
6102;DHT22;3081;50.584;7.032;2023-03-07T10:40:47;8.50;99.90
6102;DHT22;3081;50.584;7.032;2023-03-07T10:43:22;8.50;99.90
6102;DHT22;3081;50.584;7.032;2023-03-07T10:45:52;8.60;99.90
6102;DHT22;3081;50.584;7.032;2023-03-07T10:48:23;8.70;99.90
6102;DHT22;3081;50.584;7.032;2023-03-07T10:50:55;8.80;99.90
6102;DHT22;3081;50.584;7.032;2023-03-07T10:53:27;8.80;99.90
6102;DHT22;3081;50.584;7.032;2023-03-07T10:56:08;8.90;99.90
6102;DHT22;3081;50.584;7.032;2023-03-07T10:58:36;9.20;99.90
6102;DHT22;3081;50.584;7.032;2023-03-07T11:01:15;9.30;99.90
6102;DHT22;3081;50.584;7.032;2023-03-07T11:03:45;9.20;99.90
6102;DHT22;3081;50.584;7.032;2023-03-07T11:06:32;9.50;99.90
6102;DHT22;3081;50.584;7.032;2023-03-07T11:09:19;9.40;99.90
6102;DHT22;3081;50.584;7.032;2023-03-07T11:11:50;9.20;99.90
6102;DHT22;3081;50.584;7.032;2023-03-07T11:14:18;9.20;99.90
6102;DHT22;3081;50.584;7.032;2023-03-07T11:16:52;9.40;99.90
6102;DHT22;3081;50.584;7.032;2023-03-07T11:19:35;10.20;99.90
6102;DHT22;3081;50.584;7.032;2023-03-07T11:22:09;10.70;99.90
6102;DHT22;3081;50.584;7.032;2023-03-07T11:24:48;11.30;99.90
6102;DHT22;3081;50.584;7.032;2023-03-07T11:27:21;11.40;99.90
6102;DHT22;3081;50.584;7.032;2023-03-07T11:30:05;10.70;99.90
6102;DHT22;3081;50.584;7.032;2023-03-07T11:32:33;10.20;99.90
6102;DHT22;3081;50.584;7.032;2023-03-07T11:35:05;10.50;99.90
6102;DHT22;3081;50.584;7.032;2023-03-07T11:37:37;11.10;99.90
6102;DHT22;3081;50.584;7.032;2023-03-07T11:40:21;11.20;99.90
6102;DHT22;3081;50.584;7.032;2023-03-07T11:42:55;10.90;99.90
6102;DHT22;3081;50.584;7.032;2023-03-07T11:45:31;10.90;99.90
6102;DHT22;3081;50.584;7.032;2023-03-07T11:48:08;10.70;99.90
6102;DHT22;3081;50.584;7.032;2023-03-07T11:50:45;10.50;99.90
6102;DHT22;3081;50.584;7.032;2023-03-07T11:53:32;10.00;99.90
6102;DHT22;3081;50.584;7.032;2023-03-07T11:56:16;9.60;99.90
6102;DHT22;3081;50.584;7.032;2023-03-07T11:59:11;9.30;99.90
6102;DHT22;3081;50.584;7.032;2023-03-07T12:01:49;8.90;99.90
6102;DHT22;3081;50.584;7.032;2023-03-07T12:07:38;8.90;99.90
6102;DHT22;3081;50.584;7.032;2023-03-07T12:10:16;9.10;99.90
6102;DHT22;3081;50.584;7.032;2023-03-07T12:12:58;9.20;99.90
6102;DHT22;3081;50.584;7.032;2023-03-07T12:15:34;9.40;99.90
6102;DHT22;3081;50.584;7.032;2023-03-07T12:18:14;9.70;99.90
6102;DHT22;3081;50.584;7.032;2023-03-07T12:20:50;9.60;99.90
6102;DHT22;3081;50.584;7.032;2023-03-07T12:23:22;9.60;99.90
6102;DHT22;3081;50.584;7.032;2023-03-07T12:25:53;9.60;99.90
6102;DHT22;3081;50.584;7.032;2023-03-07T12:28:26;9.70;99.90
6102;DHT22;3081;50.584;7.032;2023-03-07T12:31:00;9.70;99.90
6102;DHT22;3081;50.584;7.032;2023-03-07T12:33:51;9.50;99.90
6102;DHT22;3081;50.584;7.032;2023-03-07T12:36:26;9.20;99.90
6102;DHT22;3081;50.584;7.032;2023-03-07T12:38:58;8.80;99.90
6102;DHT22;3081;50.584;7.032;2023-03-07T12:41:39;8.70;99.90
6102;DHT22;3081;50.584;7.032;2023-03-07T12:44:12;8.50;99.90
6102;DHT22;3081;50.584;7.032;2023-03-07T12:46:46;8.40;99.90
6102;DHT22;3081;50.584;7.032;2023-03-07T12:49:18;8.50;99.90
6102;DHT22;3081;50.584;7.032;2023-03-07T12:51:51;8.40;99.90
6102;DHT22;3081;50.584;7.032;2023-03-07T12:54:22;8.60;99.90
6102;DHT22;3081;50.584;7.032;2023-03-07T12:56:54;8.90;99.90
6102;DHT22;3081;50.584;7.032;2023-03-07T12:59:26;9.10;99.90
6102;DHT22;3081;50.584;7.032;2023-03-07T13:01:57;9.10;99.90
6102;DHT22;3081;50.584;7.032;2023-03-07T13:04:30;9.30;99.90
6102;DHT22;3081;50.584;7.032;2023-03-07T13:07:04;9.80;99.90
6102;DHT22;3081;50.584;7.032;2023-03-07T13:09:32;9.70;99.90
6102;DHT22;3081;50.584;7.032;2023-03-07T13:12:20;9.50;99.90
6102;DHT22;3081;50.584;7.032;2023-03-07T13:14:50;9.70;99.90
6102;DHT22;3081;50.584;7.032;2023-03-07T13:21:10;9.80;99.90
6102;DHT22;3081;50.584;7.032;2023-03-07T13:23:38;9.90;99.90
6102;DHT22;3081;50.584;7.032;2023-03-07T13:26:10;9.80;99.90
6102;DHT22;3081;50.584;7.032;2023-03-07T13:28:46;10.20;99.90
6102;DHT22;3081;50.584;7.032;2023-03-07T13:31:41;10.50;99.90
6102;DHT22;3081;50.584;7.032;2023-03-07T13:37:53;9.60;99.90
6102;DHT22;3081;50.584;7.032;2023-03-07T13:46:50;9.20;99.90
6102;DHT22;3081;50.584;7.032;2023-03-07T13:49:47;9.00;99.90
6102;DHT22;3081;50.584;7.032;2023-03-07T13:52:38;8.80;99.90
6102;DHT22;3081;50.584;7.032;2023-03-07T13:55:22;8.60;99.90
6102;DHT22;3081;50.584;7.032;2023-03-07T13:57:49;8.70;99.90
6102;DHT22;3081;50.584;7.032;2023-03-07T14:00:22;8.70;99.90
6102;DHT22;3081;50.584;7.032;2023-03-07T14:02:52;8.60;99.90
6102;DHT22;3081;50.584;7.032;2023-03-07T14:05:20;8.40;99.90
6102;DHT22;3081;50.584;7.032;2023-03-07T14:07:48;8.30;99.90
6102;DHT22;3081;50.584;7.032;2023-03-07T14:10:22;8.30;99.90
6102;DHT22;3081;50.584;7.032;2023-03-07T14:13:16;8.40;99.90
6102;DHT22;3081;50.584;7.032;2023-03-07T14:15:54;8.40;99.90
6102;DHT22;3081;50.584;7.032;2023-03-07T14:18:32;8.30;99.90
6102;DHT22;3081;50.584;7.032;2023-03-07T14:21:06;8.40;99.90
6102;DHT22;3081;50.584;7.032;2023-03-07T14:23:52;8.50;99.90
6102;DHT22;3081;50.584;7.032;2023-03-07T14:26:24;8.50;99.90
6102;DHT22;3081;50.584;7.032;2023-03-07T14:28:57;8.70;99.90
6102;DHT22;3081;50.584;7.032;2023-03-07T14:31:25;9.10;99.90
6102;DHT22;3081;50.584;7.032;2023-03-07T14:33:54;9.10;99.90
6102;DHT22;3081;50.584;7.032;2023-03-07T14:36:22;9.80;99.90
6102;DHT22;3081;50.584;7.032;2023-03-07T14:38:53;9.20;99.90
6102;DHT22;3081;50.584;7.032;2023-03-07T14:41:36;9.20;99.90
6102;DHT22;3081;50.584;7.032;2023-03-07T14:47:17;8.90;99.90
6102;DHT22;3081;50.584;7.032;2023-03-07T14:49:51;9.00;99.90
6102;DHT22;3081;50.584;7.032;2023-03-07T14:52:21;9.00;99.90
6102;DHT22;3081;50.584;7.032;2023-03-07T14:54:51;8.90;99.90
6102;DHT22;3081;50.584;7.032;2023-03-07T14:57:22;8.60;99.90
6102;DHT22;3081;50.584;7.032;2023-03-07T15:00:10;8.40;99.90
6102;DHT22;3081;50.584;7.032;2023-03-07T15:02:45;8.50;99.90
6102;DHT22;3081;50.584;7.032;2023-03-07T15:05:19;8.60;99.90
6102;DHT22;3081;50.584;7.032;2023-03-07T15:07:46;8.60;99.90
6102;DHT22;3081;50.584;7.032;2023-03-07T15:10:15;8.70;99.90
6102;DHT22;3081;50.584;7.032;2023-03-07T15:12:44;8.50;99.90
6102;DHT22;3081;50.584;7.032;2023-03-07T15:15:21;8.20;99.90
6102;DHT22;3081;50.584;7.032;2023-03-07T15:17:49;8.10;99.90
6102;DHT22;3081;50.584;7.032;2023-03-07T15:20:20;8.00;99.90
6102;DHT22;3081;50.584;7.032;2023-03-07T15:22:47;7.90;99.90
6102;DHT22;3081;50.584;7.032;2023-03-07T15:25:19;7.90;99.90
6102;DHT22;3081;50.584;7.032;2023-03-07T15:27:57;7.80;99.90
6102;DHT22;3081;50.584;7.032;2023-03-07T15:30:26;7.80;99.90
6102;DHT22;3081;50.584;7.032;2023-03-07T15:33:12;7.70;99.90
6102;DHT22;3081;50.584;7.032;2023-03-07T15:35:41;7.70;99.90
6102;DHT22;3081;50.584;7.032;2023-03-07T15:38:15;7.30;99.90
6102;DHT22;3081;50.584;7.032;2023-03-07T15:40:44;6.90;99.90
6102;DHT22;3081;50.584;7.032;2023-03-07T15:43:24;6.50;99.90
6102;DHT22;3081;50.584;7.032;2023-03-07T15:46:01;6.10;99.90
6102;DHT22;3081;50.584;7.032;2023-03-07T15:48:36;5.80;99.90
6102;DHT22;3081;50.584;7.032;2023-03-07T15:51:10;5.60;99.90
6102;DHT22;3081;50.584;7.032;2023-03-07T15:53:39;5.40;99.90
6102;DHT22;3081;50.584;7.032;2023-03-07T15:56:21;5.20;99.90
6102;DHT22;3081;50.584;7.032;2023-03-07T15:58:49;4.90;99.90
6102;DHT22;3081;50.584;7.032;2023-03-07T16:01:18;4.80;99.90
6102;DHT22;3081;50.584;7.032;2023-03-07T16:03:50;4.80;99.90
6102;DHT22;3081;50.584;7.032;2023-03-07T16:06:37;4.70;99.90
6102;DHT22;3081;50.584;7.032;2023-03-07T16:09:05;4.70;99.90
6102;DHT22;3081;50.584;7.032;2023-03-07T16:11:33;4.50;99.90
6102;DHT22;3081;50.584;7.032;2023-03-07T16:14:00;4.40;99.90
6102;DHT22;3081;50.584;7.032;2023-03-07T16:16:28;4.30;99.90
6102;DHT22;3081;50.584;7.032;2023-03-07T16:18:55;4.30;99.90
6102;DHT22;3081;50.584;7.032;2023-03-07T16:21:23;4.20;99.90
6102;DHT22;3081;50.584;7.032;2023-03-07T16:23:52;4.20;99.90
6102;DHT22;3081;50.584;7.032;2023-03-07T16:26:20;4.10;99.90
6102;DHT22;3081;50.584;7.032;2023-03-07T16:28:48;4.00;99.90
6102;DHT22;3081;50.584;7.032;2023-03-07T16:31:16;3.90;99.90
6102;DHT22;3081;50.584;7.032;2023-03-07T16:33:44;3.80;99.90
6102;DHT22;3081;50.584;7.032;2023-03-07T16:36:12;3.70;99.90
6102;DHT22;3081;50.584;7.032;2023-03-07T16:38:39;3.60;99.90
6102;DHT22;3081;50.584;7.032;2023-03-07T16:41:14;3.60;99.90
6102;DHT22;3081;50.584;7.032;2023-03-07T16:43:43;3.60;99.90
6102;DHT22;3081;50.584;7.032;2023-03-07T16:46:13;3.50;99.90
6102;DHT22;3081;50.584;7.032;2023-03-07T16:48:40;3.60;99.90
6102;DHT22;3081;50.584;7.032;2023-03-07T16:51:12;3.60;99.90
6102;DHT22;3081;50.584;7.032;2023-03-07T16:53:41;3.60;99.90
6102;DHT22;3081;50.584;7.032;2023-03-07T16:56:14;3.60;99.90
6102;DHT22;3081;50.584;7.032;2023-03-07T16:58:43;3.50;99.90
6102;DHT22;3081;50.584;7.032;2023-03-07T17:01:11;3.50;99.90
6102;DHT22;3081;50.584;7.032;2023-03-07T17:03:39;3.60;99.90